sensor_id;sensor_type;location;lat;lon;timestamp;P1;durP1;ratioP1;P2;durP2;ratioP2
34828;SDS011;21042;47.620;12.188;2024-03-17T00:01:55;6.28;;;3.45;;
34828;SDS011;21042;47.620;12.188;2024-03-17T00:04:20;4.35;;;2.88;;
34828;SDS011;21042;47.620;12.188;2024-03-17T00:06:47;5.55;;;2.88;;
34828;SDS011;21042;47.620;12.188;2024-03-17T00:09:12;5.60;;;3.70;;
34828;SDS011;21042;47.620;12.188;2024-03-17T00:11:38;4.82;;;3.45;;
34828;SDS011;21042;47.620;12.188;2024-03-17T00:14:05;7.15;;;3.38;;
34828;SDS011;21042;47.620;12.188;2024-03-17T00:16:32;4.20;;;3.40;;
34828;SDS011;21042;47.620;12.188;2024-03-17T00:18:58;3.78;;;3.17;;
34828;SDS011;21042;47.620;12.188;2024-03-17T00:21:24;7.28;;;3.40;;
34828;SDS011;21042;47.620;12.188;2024-03-17T00:23:51;8.15;;;4.05;;
34828;SDS011;21042;47.620;12.188;2024-03-17T00:26:17;5.25;;;4.55;;
34828;SDS011;21042;47.620;12.188;2024-03-17T00:28:44;5.53;;;4.47;;
34828;SDS011;21042;47.620;12.188;2024-03-17T00:31:13;5.72;;;4.57;;
34828;SDS011;21042;47.620;12.188;2024-03-17T00:33:40;5.50;;;4.82;;
34828;SDS011;21042;47.620;12.188;2024-03-17T00:36:06;6.75;;;4.60;;
34828;SDS011;21042;47.620;12.188;2024-03-17T00:38:32;5.68;;;3.78;;
34828;SDS011;21042;47.620;12.188;2024-03-17T00:40:58;5.15;;;3.80;;
34828;SDS011;21042;47.620;12.188;2024-03-17T00:43:25;6.28;;;3.30;;
34828;SDS011;21042;47.620;12.188;2024-03-17T00:45:51;6.43;;;3.03;;
34828;SDS011;21042;47.620;12.188;2024-03-17T00:48:17;9.45;;;4.75;;
34828;SDS011;21042;47.620;12.188;2024-03-17T00:50:43;40.75;;;5.13;;
34828;SDS011;21042;47.620;12.188;2024-03-17T00:53:10;7.30;;;4.47;;
34828;SDS011;21042;47.620;12.188;2024-03-17T00:55:36;5.25;;;3.88;;
34828;SDS011;21042;47.620;12.188;2024-03-17T00:58:02;4.22;;;3.80;;
34828;SDS011;21042;47.620;12.188;2024-03-17T01:00:28;5.97;;;4.10;;
34828;SDS011;21042;47.620;12.188;2024-03-17T01:02:54;5.53;;;4.05;;
34828;SDS011;21042;47.620;12.188;2024-03-17T01:05:21;7.15;;;4.50;;
34828;SDS011;21042;47.620;12.188;2024-03-17T01:07:47;6.40;;;4.10;;
34828;SDS011;21042;47.620;12.188;2024-03-17T01:10:14;4.95;;;4.10;;
34828;SDS011;21042;47.620;12.188;2024-03-17T01:12:39;6.90;;;3.95;;
34828;SDS011;21042;47.620;12.188;2024-03-17T01:15:06;6.22;;;4.30;;
34828;SDS011;21042;47.620;12.188;2024-03-17T01:17:32;4.85;;;3.85;;
34828;SDS011;21042;47.620;12.188;2024-03-17T01:19:58;7.97;;;5.47;;
34828;SDS011;21042;47.620;12.188;2024-03-17T01:22:24;8.98;;;5.80;;
34828;SDS011;21042;47.620;12.188;2024-03-17T01:24:50;8.90;;;6.13;;
34828;SDS011;21042;47.620;12.188;2024-03-17T01:27:15;6.28;;;4.75;;
34828;SDS011;21042;47.620;12.188;2024-03-17T01:29:44;7.40;;;5.38;;
34828;SDS011;21042;47.620;12.188;2024-03-17T01:32:10;8.82;;;5.93;;
34828;SDS011;21042;47.620;12.188;2024-03-17T01:34:37;5.53;;;4.82;;
34828;SDS011;21042;47.620;12.188;2024-03-17T01:37:03;7.22;;;4.78;;
34828;SDS011;21042;47.620;12.188;2024-03-17T01:39:30;7.82;;;5.45;;
34828;SDS011;21042;47.620;12.188;2024-03-17T01:41:57;8.27;;;5.32;;
34828;SDS011;21042;47.620;12.188;2024-03-17T01:44:27;7.90;;;5.32;;
34828;SDS011;21042;47.620;12.188;2024-03-17T01:46:55;5.85;;;4.43;;
34828;SDS011;21042;47.620;12.188;2024-03-17T01:49:22;7.25;;;4.88;;
34828;SDS011;21042;47.620;12.188;2024-03-17T01:51:49;5.25;;;4.13;;
34828;SDS011;21042;47.620;12.188;2024-03-17T01:54:15;9.23;;;4.93;;
34828;SDS011;21042;47.620;12.188;2024-03-17T01:56:42;6.20;;;4.50;;
34828;SDS011;21042;47.620;12.188;2024-03-17T01:59:09;6.00;;;4.43;;
34828;SDS011;21042;47.620;12.188;2024-03-17T02:01:35;6.47;;;4.57;;
34828;SDS011;21042;47.620;12.188;2024-03-17T02:04:02;6.65;;;4.40;;
34828;SDS011;21042;47.620;12.188;2024-03-17T02:06:30;5.68;;;3.88;;
34828;SDS011;21042;47.620;12.188;2024-03-17T02:08:56;9.57;;;4.32;;
34828;SDS011;21042;47.620;12.188;2024-03-17T02:11:23;6.85;;;4.05;;
34828;SDS011;21042;47.620;12.188;2024-03-17T02:13:51;8.95;;;5.15;;
34828;SDS011;21042;47.620;12.188;2024-03-17T02:16:18;8.00;;;4.90;;
34828;SDS011;21042;47.620;12.188;2024-03-17T02:18:45;7.72;;;4.60;;
34828;SDS011;21042;47.620;12.188;2024-03-17T02:21:11;11.23;;;5.43;;
34828;SDS011;21042;47.620;12.188;2024-03-17T02:23:38;7.80;;;5.05;;
34828;SDS011;21042;47.620;12.188;2024-03-17T02:26:04;6.57;;;4.32;;
34828;SDS011;21042;47.620;12.188;2024-03-17T02:28:37;7.75;;;4.32;;
34828;SDS011;21042;47.620;12.188;2024-03-17T02:31:15;6.47;;;4.43;;
34828;SDS011;21042;47.620;12.188;2024-03-17T02:33:42;10.27;;;5.03;;
34828;SDS011;21042;47.620;12.188;2024-03-17T02:36:09;7.63;;;4.40;;
34828;SDS011;21042;47.620;12.188;2024-03-17T02:38:37;9.57;;;5.18;;
34828;SDS011;21042;47.620;12.188;2024-03-17T02:41:25;7.68;;;5.00;;
34828;SDS011;21042;47.620;12.188;2024-03-17T02:43:52;7.00;;;4.90;;
34828;SDS011;21042;47.620;12.188;2024-03-17T02:46:18;7.90;;;5.18;;
34828;SDS011;21042;47.620;12.188;2024-03-17T02:48:50;7.30;;;4.38;;
34828;SDS011;21042;47.620;12.188;2024-03-17T02:51:17;8.65;;;5.07;;
34828;SDS011;21042;47.620;12.188;2024-03-17T02:53:45;9.52;;;4.85;;
34828;SDS011;21042;47.620;12.188;2024-03-17T02:56:13;13.85;;;5.35;;
34828;SDS011;21042;47.620;12.188;2024-03-17T02:58:43;8.63;;;5.22;;
34828;SDS011;21042;47.620;12.188;2024-03-17T03:01:12;9.30;;;4.75;;
34828;SDS011;21042;47.620;12.188;2024-03-17T03:03:40;9.73;;;4.60;;
34828;SDS011;21042;47.620;12.188;2024-03-17T03:06:06;9.27;;;5.43;;
34828;SDS011;21042;47.620;12.188;2024-03-17T03:08:38;7.32;;;5.13;;
34828;SDS011;21042;47.620;12.188;2024-03-17T03:11:08;11.35;;;6.00;;
34828;SDS011;21042;47.620;12.188;2024-03-17T03:13:38;8.13;;;4.93;;
34828;SDS011;21042;47.620;12.188;2024-03-17T03:16:10;9.55;;;5.50;;
34828;SDS011;21042;47.620;12.188;2024-03-17T03:18:39;9.18;;;4.97;;
34828;SDS011;21042;47.620;12.188;2024-03-17T03:21:06;9.50;;;5.82;;
34828;SDS011;21042;47.620;12.188;2024-03-17T03:23:32;8.40;;;4.70;;
34828;SDS011;21042;47.620;12.188;2024-03-17T03:25:59;8.38;;;5.00;;
34828;SDS011;21042;47.620;12.188;2024-03-17T03:28:29;10.27;;;4.80;;
34828;SDS011;21042;47.620;12.188;2024-03-17T03:30:56;8.95;;;5.20;;
34828;SDS011;21042;47.620;12.188;2024-03-17T03:33:23;9.03;;;5.00;;
34828;SDS011;21042;47.620;12.188;2024-03-17T03:35:49;9.50;;;4.65;;
34828;SDS011;21042;47.620;12.188;2024-03-17T03:38:16;7.28;;;3.97;;
34828;SDS011;21042;47.620;12.188;2024-03-17T03:40:43;9.68;;;5.72;;
34828;SDS011;21042;47.620;12.188;2024-03-17T03:43:09;9.05;;;6.00;;
34828;SDS011;21042;47.620;12.188;2024-03-17T03:45:36;9.38;;;5.68;;
34828;SDS011;21042;47.620;12.188;2024-03-17T03:48:03;9.93;;;5.72;;
34828;SDS011;21042;47.620;12.188;2024-03-17T03:50:29;10.07;;;5.72;;
34828;SDS011;21042;47.620;12.188;2024-03-17T03:52:56;7.50;;;5.28;;
34828;SDS011;21042;47.620;12.188;2024-03-17T03:55:22;11.40;;;5.43;;
34828;SDS011;21042;47.620;12.188;2024-03-17T03:57:49;7.53;;;4.70;;
34828;SDS011;21042;47.620;12.188;2024-03-17T04:00:17;7.93;;;4.22;;
34828;SDS011;21042;47.620;12.188;2024-03-17T04:02:50;8.30;;;4.65;;
34828;SDS011;21042;47.620;12.188;2024-03-17T04:05:17;6.93;;;3.90;;
34828;SDS011;21042;47.620;12.188;2024-03-17T04:07:45;9.48;;;4.50;;
34828;SDS011;21042;47.620;12.188;2024-03-17T04:10:11;7.97;;;5.28;;
34828;SDS011;21042;47.620;12.188;2024-03-17T04:12:38;11.77;;;5.68;;
34828;SDS011;21042;47.620;12.188;2024-03-17T04:15:04;9.45;;;5.45;;
34828;SDS011;21042;47.620;12.188;2024-03-17T04:17:31;9.93;;;5.30;;
34828;SDS011;21042;47.620;12.188;2024-03-17T04:19:58;8.18;;;5.13;;
34828;SDS011;21042;47.620;12.188;2024-03-17T04:22:24;2.47;;;1.80;;
34828;SDS011;21042;47.620;12.188;2024-03-17T04:24:50;2.25;;;1.27;;
34828;SDS011;21042;47.620;12.188;2024-03-17T04:27:21;2.15;;;1.30;;
34828;SDS011;21042;47.620;12.188;2024-03-17T04:29:54;2.35;;;1.63;;
34828;SDS011;21042;47.620;12.188;2024-03-17T04:32:21;1.17;;;0.88;;
34828;SDS011;21042;47.620;12.188;2024-03-17T04:34:47;2.50;;;0.73;;
34828;SDS011;21042;47.620;12.188;2024-03-17T04:37:14;0.80;;;0.65;;
34828;SDS011;21042;47.620;12.188;2024-03-17T04:39:40;1.65;;;0.80;;
34828;SDS011;21042;47.620;12.188;2024-03-17T04:42:10;1.00;;;0.40;;
34828;SDS011;21042;47.620;12.188;2024-03-17T04:44:36;1.60;;;1.05;;
34828;SDS011;21042;47.620;12.188;2024-03-17T04:47:02;2.25;;;1.55;;
34828;SDS011;21042;47.620;12.188;2024-03-17T04:49:42;3.70;;;1.40;;
34828;SDS011;21042;47.620;12.188;2024-03-17T04:52:12;5.18;;;2.10;;
34828;SDS011;21042;47.620;12.188;2024-03-17T04:54:38;3.30;;;1.70;;
34828;SDS011;21042;47.620;12.188;2024-03-17T04:57:06;3.25;;;2.00;;
34828;SDS011;21042;47.620;12.188;2024-03-17T04:59:33;4.57;;;2.63;;
34828;SDS011;21042;47.620;12.188;2024-03-17T05:02:00;5.13;;;2.65;;
34828;SDS011;21042;47.620;12.188;2024-03-17T05:04:27;6.00;;;3.42;;
34828;SDS011;21042;47.620;12.188;2024-03-17T05:06:53;7.28;;;3.15;;
34828;SDS011;21042;47.620;12.188;2024-03-17T05:09:19;3.95;;;2.42;;
34828;SDS011;21042;47.620;12.188;2024-03-17T05:11:46;2.90;;;2.03;;
34828;SDS011;21042;47.620;12.188;2024-03-17T05:14:12;3.05;;;1.80;;
34828;SDS011;21042;47.620;12.188;2024-03-17T05:16:38;2.72;;;1.15;;
34828;SDS011;21042;47.620;12.188;2024-03-17T05:19:04;6.03;;;3.22;;
34828;SDS011;21042;47.620;12.188;2024-03-17T05:21:31;2.47;;;1.40;;
34828;SDS011;21042;47.620;12.188;2024-03-17T05:23:57;2.40;;;1.50;;
34828;SDS011;21042;47.620;12.188;2024-03-17T05:26:24;2.55;;;1.15;;
34828;SDS011;21042;47.620;12.188;2024-03-17T05:28:50;0.53;;;0.40;;
34828;SDS011;21042;47.620;12.188;2024-03-17T05:31:16;0.73;;;0.40;;
34828;SDS011;21042;47.620;12.188;2024-03-17T05:33:43;1.23;;;0.45;;
34828;SDS011;21042;47.620;12.188;2024-03-17T05:36:10;1.35;;;0.50;;
34828;SDS011;21042;47.620;12.188;2024-03-17T05:38:36;1.98;;;0.43;;
34828;SDS011;21042;47.620;12.188;2024-03-17T05:41:05;0.30;;;0.20;;
34828;SDS011;21042;47.620;12.188;2024-03-17T05:43:33;1.92;;;0.30;;
34828;SDS011;21042;47.620;12.188;2024-03-17T05:46:04;0.73;;;0.40;;
34828;SDS011;21042;47.620;12.188;2024-03-17T05:48:38;0.77;;;0.40;;
34828;SDS011;21042;47.620;12.188;2024-03-17T05:51:05;5.78;;;0.60;;
34828;SDS011;21042;47.620;12.188;2024-03-17T05:53:35;3.97;;;0.60;;
34828;SDS011;21042;47.620;12.188;2024-03-17T05:56:02;1.63;;;1.10;;
34828;SDS011;21042;47.620;12.188;2024-03-17T05:58:28;2.08;;;1.13;;
34828;SDS011;21042;47.620;12.188;2024-03-17T06:00:54;2.58;;;0.70;;
34828;SDS011;21042;47.620;12.188;2024-03-17T06:03:20;0.77;;;0.50;;
34828;SDS011;21042;47.620;12.188;2024-03-17T06:05:47;2.13;;;1.17;;
34828;SDS011;21042;47.620;12.188;2024-03-17T06:08:13;2.38;;;1.30;;
34828;SDS011;21042;47.620;12.188;2024-03-17T06:10:46;4.20;;;2.47;;
34828;SDS011;21042;47.620;12.188;2024-03-17T06:13:13;1.67;;;1.30;;
34828;SDS011;21042;47.620;12.188;2024-03-17T06:15:40;1.45;;;1.10;;
34828;SDS011;21042;47.620;12.188;2024-03-17T06:18:06;2.10;;;1.30;;
34828;SDS011;21042;47.620;12.188;2024-03-17T06:20:35;1.63;;;1.40;;
34828;SDS011;21042;47.620;12.188;2024-03-17T06:23:04;3.38;;;2.00;;
34828;SDS011;21042;47.620;12.188;2024-03-17T06:25:30;4.55;;;1.90;;
34828;SDS011;21042;47.620;12.188;2024-03-17T06:27:56;3.72;;;1.95;;
34828;SDS011;21042;47.620;12.188;2024-03-17T06:30:22;3.22;;;2.22;;
34828;SDS011;21042;47.620;12.188;2024-03-17T06:32:48;3.08;;;1.80;;
34828;SDS011;21042;47.620;12.188;2024-03-17T06:35:14;3.97;;;1.98;;
34828;SDS011;21042;47.620;12.188;2024-03-17T06:37:50;3.90;;;2.60;;
34828;SDS011;21042;47.620;12.188;2024-03-17T06:40:17;3.65;;;2.72;;
34828;SDS011;21042;47.620;12.188;2024-03-17T06:42:44;3.83;;;2.35;;
34828;SDS011;21042;47.620;12.188;2024-03-17T06:45:10;4.95;;;2.60;;
34828;SDS011;21042;47.620;12.188;2024-03-17T06:47:36;4.03;;;2.72;;
34828;SDS011;21042;47.620;12.188;2024-03-17T06:50:03;5.50;;;3.15;;
34828;SDS011;21042;47.620;12.188;2024-03-17T06:52:29;5.00;;;3.13;;
34828;SDS011;21042;47.620;12.188;2024-03-17T06:54:56;4.93;;;3.75;;
34828;SDS011;21042;47.620;12.188;2024-03-17T06:57:26;3.63;;;2.63;;
34828;SDS011;21042;47.620;12.188;2024-03-17T06:59:52;3.80;;;3.05;;
34828;SDS011;21042;47.620;12.188;2024-03-17T07:02:18;8.05;;;3.47;;
34828;SDS011;21042;47.620;12.188;2024-03-17T07:04:48;4.07;;;2.75;;
34828;SDS011;21042;47.620;12.188;2024-03-17T07:07:14;5.50;;;3.00;;
34828;SDS011;21042;47.620;12.188;2024-03-17T07:09:40;5.82;;;2.92;;
34828;SDS011;21042;47.620;12.188;2024-03-17T07:12:06;5.40;;;2.77;;
34828;SDS011;21042;47.620;12.188;2024-03-17T07:14:33;2.95;;;2.65;;
34828;SDS011;21042;47.620;12.188;2024-03-17T07:16:59;2.60;;;2.00;;
34828;SDS011;21042;47.620;12.188;2024-03-17T07:19:24;6.18;;;2.67;;
34828;SDS011;21042;47.620;12.188;2024-03-17T07:21:50;2.78;;;2.15;;
34828;SDS011;21042;47.620;12.188;2024-03-17T07:24:16;5.82;;;2.42;;
34828;SDS011;21042;47.620;12.188;2024-03-17T07:26:42;4.30;;;2.00;;
34828;SDS011;21042;47.620;12.188;2024-03-17T07:29:08;3.85;;;2.10;;
34828;SDS011;21042;47.620;12.188;2024-03-17T07:31:34;3.22;;;1.70;;
34828;SDS011;21042;47.620;12.188;2024-03-17T07:34:00;2.00;;;1.80;;
34828;SDS011;21042;47.620;12.188;2024-03-17T07:36:26;2.63;;;1.52;;
34828;SDS011;21042;47.620;12.188;2024-03-17T07:38:52;1.88;;;1.42;;
34828;SDS011;21042;47.620;12.188;2024-03-17T07:41:17;2.00;;;1.30;;
34828;SDS011;21042;47.620;12.188;2024-03-17T07:43:45;1.65;;;1.50;;
34828;SDS011;21042;47.620;12.188;2024-03-17T07:46:11;1.13;;;0.95;;
34828;SDS011;21042;47.620;12.188;2024-03-17T07:48:41;2.15;;;0.80;;
34828;SDS011;21042;47.620;12.188;2024-03-17T07:51:10;3.55;;;1.80;;
34828;SDS011;21042;47.620;12.188;2024-03-17T07:53:40;2.10;;;1.70;;
34828;SDS011;21042;47.620;12.188;2024-03-17T07:58:37;4.00;;;2.10;;
34828;SDS011;21042;47.620;12.188;2024-03-17T08:01:08;2.80;;;1.80;;
34828;SDS011;21042;47.620;12.188;2024-03-17T08:03:36;3.63;;;1.90;;
34828;SDS011;21042;47.620;12.188;2024-03-17T08:06:05;2.78;;;2.15;;
34828;SDS011;21042;47.620;12.188;2024-03-17T08:08:32;3.75;;;1.73;;
34828;SDS011;21042;47.620;12.188;2024-03-17T08:10:59;2.60;;;1.80;;
34828;SDS011;21042;47.620;12.188;2024-03-17T08:13:25;3.72;;;2.15;;
34828;SDS011;21042;47.620;12.188;2024-03-17T08:15:55;2.42;;;1.95;;
34828;SDS011;21042;47.620;12.188;2024-03-17T08:18:22;7.57;;;2.33;;
34828;SDS011;21042;47.620;12.188;2024-03-17T08:20:48;2.38;;;1.80;;
34828;SDS011;21042;47.620;12.188;2024-03-17T08:23:14;2.97;;;1.70;;
34828;SDS011;21042;47.620;12.188;2024-03-17T08:25:40;2.72;;;1.50;;
34828;SDS011;21042;47.620;12.188;2024-03-17T08:28:06;1.63;;;1.38;;
34828;SDS011;21042;47.620;12.188;2024-03-17T08:30:35;2.70;;;1.70;;
34828;SDS011;21042;47.620;12.188;2024-03-17T08:33:01;1.75;;;1.58;;
34828;SDS011;21042;47.620;12.188;2024-03-17T08:35:26;1.92;;;1.40;;
34828;SDS011;21042;47.620;12.188;2024-03-17T08:37:52;1.48;;;1.30;;
34828;SDS011;21042;47.620;12.188;2024-03-17T08:40:21;3.38;;;1.85;;
34828;SDS011;21042;47.620;12.188;2024-03-17T08:42:48;3.28;;;1.60;;
34828;SDS011;21042;47.620;12.188;2024-03-17T08:45:14;2.33;;;1.25;;
34828;SDS011;21042;47.620;12.188;2024-03-17T08:47:40;2.53;;;1.45;;
34828;SDS011;21042;47.620;12.188;2024-03-17T08:50:06;2.88;;;1.38;;
34828;SDS011;21042;47.620;12.188;2024-03-17T08:52:36;1.75;;;1.65;;
34828;SDS011;21042;47.620;12.188;2024-03-17T08:55:02;2.78;;;1.52;;
34828;SDS011;21042;47.620;12.188;2024-03-17T08:57:29;1.88;;;1.70;;
34828;SDS011;21042;47.620;12.188;2024-03-17T08:59:55;1.80;;;1.67;;
34828;SDS011;21042;47.620;12.188;2024-03-17T09:02:21;1.52;;;1.35;;
34828;SDS011;21042;47.620;12.188;2024-03-17T09:04:47;4.53;;;1.92;;
34828;SDS011;21042;47.620;12.188;2024-03-17T09:07:13;4.28;;;2.05;;
34828;SDS011;21042;47.620;12.188;2024-03-17T09:09:42;3.33;;;1.88;;
34828;SDS011;21042;47.620;12.188;2024-03-17T09:12:08;2.25;;;1.85;;
34828;SDS011;21042;47.620;12.188;2024-03-17T09:14:34;2.40;;;1.80;;
34828;SDS011;21042;47.620;12.188;2024-03-17T09:17:01;5.28;;;2.03;;
34828;SDS011;21042;47.620;12.188;2024-03-17T09:19:26;5.45;;;1.58;;
34828;SDS011;21042;47.620;12.188;2024-03-17T09:21:54;3.63;;;1.90;;
34828;SDS011;21042;47.620;12.188;2024-03-17T09:24:20;2.13;;;1.80;;
34828;SDS011;21042;47.620;12.188;2024-03-17T09:26:46;2.92;;;2.03;;
34828;SDS011;21042;47.620;12.188;2024-03-17T09:29:15;2.38;;;1.67;;
34828;SDS011;21042;47.620;12.188;2024-03-17T09:31:41;5.22;;;3.20;;
34828;SDS011;21042;47.620;12.188;2024-03-17T09:34:10;4.20;;;2.30;;
34828;SDS011;21042;47.620;12.188;2024-03-17T09:36:36;3.08;;;2.25;;
34828;SDS011;21042;47.620;12.188;2024-03-17T09:39:01;1.80;;;1.58;;
34828;SDS011;21042;47.620;12.188;2024-03-17T09:41:29;1.55;;;1.42;;
34828;SDS011;21042;47.620;12.188;2024-03-17T09:43:56;2.03;;;1.33;;
34828;SDS011;21042;47.620;12.188;2024-03-17T09:46:23;1.77;;;1.50;;
34828;SDS011;21042;47.620;12.188;2024-03-17T09:48:51;2.17;;;1.50;;
34828;SDS011;21042;47.620;12.188;2024-03-17T09:51:21;2.40;;;1.33;;
34828;SDS011;21042;47.620;12.188;2024-03-17T09:53:49;1.80;;;1.50;;
34828;SDS011;21042;47.620;12.188;2024-03-17T09:56:16;2.97;;;1.80;;
34828;SDS011;21042;47.620;12.188;2024-03-17T09:58:45;3.00;;;1.85;;
34828;SDS011;21042;47.620;12.188;2024-03-17T10:01:11;2.10;;;1.23;;
34828;SDS011;21042;47.620;12.188;2024-03-17T10:03:50;2.63;;;1.50;;
34828;SDS011;21042;47.620;12.188;2024-03-17T10:06:18;3.40;;;1.60;;
34828;SDS011;21042;47.620;12.188;2024-03-17T10:11:16;3.38;;;1.92;;
34828;SDS011;21042;47.620;12.188;2024-03-17T10:13:58;2.20;;;1.90;;
34828;SDS011;21042;47.620;12.188;2024-03-17T10:16:34;2.85;;;1.88;;
34828;SDS011;21042;47.620;12.188;2024-03-17T10:21:37;3.35;;;1.73;;
34828;SDS011;21042;47.620;12.188;2024-03-17T10:24:19;2.00;;;1.80;;
34828;SDS011;21042;47.620;12.188;2024-03-17T10:26:56;2.80;;;1.80;;
34828;SDS011;21042;47.620;12.188;2024-03-17T10:29:29;2.40;;;1.70;;
34828;SDS011;21042;47.620;12.188;2024-03-17T10:31:58;2.22;;;1.80;;
34828;SDS011;21042;47.620;12.188;2024-03-17T10:34:28;3.72;;;2.08;;
34828;SDS011;21042;47.620;12.188;2024-03-17T10:37:10;2.60;;;2.13;;
34828;SDS011;21042;47.620;12.188;2024-03-17T10:39:40;2.53;;;2.03;;
34828;SDS011;21042;47.620;12.188;2024-03-17T10:42:11;2.22;;;1.80;;
34828;SDS011;21042;47.620;12.188;2024-03-17T10:44:38;2.20;;;2.00;;
34828;SDS011;21042;47.620;12.188;2024-03-17T10:47:05;2.97;;;2.40;;
34828;SDS011;21042;47.620;12.188;2024-03-17T10:49:38;4.70;;;2.65;;
34828;SDS011;21042;47.620;12.188;2024-03-17T10:52:05;3.78;;;2.03;;
34828;SDS011;21042;47.620;12.188;2024-03-17T10:54:36;3.13;;;2.13;;
34828;SDS011;21042;47.620;12.188;2024-03-17T10:59:52;4.03;;;2.05;;
34828;SDS011;21042;47.620;12.188;2024-03-17T11:02:22;4.25;;;2.28;;
34828;SDS011;21042;47.620;12.188;2024-03-17T11:04:51;2.40;;;2.17;;
34828;SDS011;21042;47.620;12.188;2024-03-17T11:07:20;2.40;;;1.90;;
34828;SDS011;21042;47.620;12.188;2024-03-17T11:09:47;2.92;;;2.33;;
34828;SDS011;21042;47.620;12.188;2024-03-17T11:15:34;2.80;;;1.83;;
34828;SDS011;21042;47.620;12.188;2024-03-17T11:20:36;3.63;;;1.77;;
34828;SDS011;21042;47.620;12.188;2024-03-17T11:23:03;3.30;;;1.65;;
34828;SDS011;21042;47.620;12.188;2024-03-17T11:28:00;2.40;;;1.75;;
34828;SDS011;21042;47.620;12.188;2024-03-17T11:39:00;2.65;;;1.75;;
34828;SDS011;21042;47.620;12.188;2024-03-17T11:41:32;1.85;;;1.70;;
34828;SDS011;21042;47.620;12.188;2024-03-17T11:46:39;1.75;;;1.48;;
34828;SDS011;21042;47.620;12.188;2024-03-17T11:49:05;3.03;;;1.60;;
34828;SDS011;21042;47.620;12.188;2024-03-17T11:51:34;1.80;;;1.55;;
34828;SDS011;21042;47.620;12.188;2024-03-17T11:54:03;1.35;;;1.20;;
34828;SDS011;21042;47.620;12.188;2024-03-17T11:56:29;1.88;;;1.30;;
34828;SDS011;21042;47.620;12.188;2024-03-17T11:59:05;1.83;;;1.30;;
34828;SDS011;21042;47.620;12.188;2024-03-17T12:01:34;2.45;;;1.38;;
34828;SDS011;21042;47.620;12.188;2024-03-17T12:04:00;1.77;;;1.25;;
34828;SDS011;21042;47.620;12.188;2024-03-17T12:06:33;2.00;;;1.10;;
34828;SDS011;21042;47.620;12.188;2024-03-17T12:11:57;1.88;;;1.40;;
34828;SDS011;21042;47.620;12.188;2024-03-17T12:14:28;1.95;;;1.30;;
34828;SDS011;21042;47.620;12.188;2024-03-17T12:16:54;2.05;;;1.23;;
34828;SDS011;21042;47.620;12.188;2024-03-17T12:19:22;2.03;;;1.10;;
34828;SDS011;21042;47.620;12.188;2024-03-17T12:21:49;1.85;;;1.05;;
34828;SDS011;21042;47.620;12.188;2024-03-17T12:24:23;1.42;;;0.90;;
34828;SDS011;21042;47.620;12.188;2024-03-17T12:26:51;1.00;;;0.57;;
34828;SDS011;21042;47.620;12.188;2024-03-17T12:31:53;0.50;;;0.50;;
34828;SDS011;21042;47.620;12.188;2024-03-17T12:34:20;1.95;;;0.60;;
34828;SDS011;21042;47.620;12.188;2024-03-17T12:36:47;0.85;;;0.55;;
34828;SDS011;21042;47.620;12.188;2024-03-17T12:39:24;0.82;;;0.60;;
34828;SDS011;21042;47.620;12.188;2024-03-17T12:44:34;1.20;;;0.50;;
34828;SDS011;21042;47.620;12.188;2024-03-17T12:47:03;1.65;;;0.70;;
34828;SDS011;21042;47.620;12.188;2024-03-17T12:49:31;0.68;;;0.50;;
34828;SDS011;21042;47.620;12.188;2024-03-17T12:52:01;1.27;;;0.50;;
34828;SDS011;21042;47.620;12.188;2024-03-17T12:54:28;3.55;;;0.68;;
34828;SDS011;21042;47.620;12.188;2024-03-17T12:57:05;3.63;;;0.30;;
34828;SDS011;21042;47.620;12.188;2024-03-17T12:59:50;0.40;;;0.40;;
34828;SDS011;21042;47.620;12.188;2024-03-17T13:02:34;1.92;;;0.50;;
34828;SDS011;21042;47.620;12.188;2024-03-17T13:05:07;3.00;;;0.50;;
34828;SDS011;21042;47.620;12.188;2024-03-17T13:07:43;1.53;;;0.50;;
34828;SDS011;21042;47.620;12.188;2024-03-17T13:10:15;1.25;;;0.50;;
34828;SDS011;21042;47.620;12.188;2024-03-17T13:12:42;2.08;;;0.88;;
34828;SDS011;21042;47.620;12.188;2024-03-17T13:15:12;1.50;;;0.47;;
34828;SDS011;21042;47.620;12.188;2024-03-17T13:17:40;0.80;;;0.50;;
34828;SDS011;21042;47.620;12.188;2024-03-17T13:20:15;1.50;;;0.50;;
34828;SDS011;21042;47.620;12.188;2024-03-17T13:22:42;1.42;;;0.60;;
34828;SDS011;21042;47.620;12.188;2024-03-17T13:25:16;2.65;;;0.63;;
34828;SDS011;21042;47.620;12.188;2024-03-17T13:27:55;0.75;;;0.45;;
34828;SDS011;21042;47.620;12.188;2024-03-17T13:30:22;2.53;;;0.87;;
34828;SDS011;21042;47.620;12.188;2024-03-17T13:32:52;1.58;;;0.50;;
34828;SDS011;21042;47.620;12.188;2024-03-17T13:35:23;3.53;;;0.75;;
34828;SDS011;21042;47.620;12.188;2024-03-17T13:37:54;1.95;;;0.60;;
34828;SDS011;21042;47.620;12.188;2024-03-17T13:42:49;1.80;;;0.63;;
34828;SDS011;21042;47.620;12.188;2024-03-17T13:45:16;2.80;;;0.82;;
34828;SDS011;21042;47.620;12.188;2024-03-17T13:47:47;2.05;;;0.60;;
34828;SDS011;21042;47.620;12.188;2024-03-17T13:50:16;2.83;;;0.60;;
34828;SDS011;21042;47.620;12.188;2024-03-17T13:52:42;1.73;;;0.65;;
34828;SDS011;21042;47.620;12.188;2024-03-17T13:55:15;1.20;;;0.55;;
34828;SDS011;21042;47.620;12.188;2024-03-17T13:57:51;2.63;;;0.80;;
34828;SDS011;21042;47.620;12.188;2024-03-17T14:00:22;1.92;;;0.50;;
34828;SDS011;21042;47.620;12.188;2024-03-17T14:02:50;2.78;;;0.60;;
34828;SDS011;21042;47.620;12.188;2024-03-17T14:05:17;1.42;;;0.70;;
34828;SDS011;21042;47.620;12.188;2024-03-17T14:07:44;0.90;;;0.50;;
34828;SDS011;21042;47.620;12.188;2024-03-17T14:10:11;3.13;;;0.85;;
34828;SDS011;21042;47.620;12.188;2024-03-17T14:12:38;3.35;;;0.70;;
34828;SDS011;21042;47.620;12.188;2024-03-17T14:15:05;3.22;;;0.80;;
34828;SDS011;21042;47.620;12.188;2024-03-17T14:17:39;2.67;;;0.70;;
34828;SDS011;21042;47.620;12.188;2024-03-17T14:20:15;5.30;;;0.98;;
34828;SDS011;21042;47.620;12.188;2024-03-17T14:22:43;2.00;;;0.75;;
34828;SDS011;21042;47.620;12.188;2024-03-17T14:25:15;3.92;;;0.70;;
34828;SDS011;21042;47.620;12.188;2024-03-17T14:27:43;2.42;;;0.90;;
34828;SDS011;21042;47.620;12.188;2024-03-17T14:30:10;0.77;;;0.70;;
34828;SDS011;21042;47.620;12.188;2024-03-17T14:32:42;4.68;;;0.80;;
34828;SDS011;21042;47.620;12.188;2024-03-17T14:35:10;1.73;;;0.90;;
34828;SDS011;21042;47.620;12.188;2024-03-17T14:37:38;2.25;;;0.70;;
34828;SDS011;21042;47.620;12.188;2024-03-17T14:40:06;1.65;;;0.80;;
34828;SDS011;21042;47.620;12.188;2024-03-17T14:42:39;2.38;;;0.90;;
34828;SDS011;21042;47.620;12.188;2024-03-17T14:45:06;2.30;;;0.90;;
34828;SDS011;21042;47.620;12.188;2024-03-17T14:47:33;2.05;;;0.80;;
34828;SDS011;21042;47.620;12.188;2024-03-17T14:49:59;0.60;;;0.57;;
34828;SDS011;21042;47.620;12.188;2024-03-17T14:52:25;4.65;;;1.05;;
34828;SDS011;21042;47.620;12.188;2024-03-17T14:54:51;3.23;;;0.97;;
34828;SDS011;21042;47.620;12.188;2024-03-17T14:57:19;4.82;;;1.15;;
34828;SDS011;21042;47.620;12.188;2024-03-17T14:59:46;5.80;;;0.90;;
34828;SDS011;21042;47.620;12.188;2024-03-17T15:02:12;1.88;;;0.95;;
34828;SDS011;21042;47.620;12.188;2024-03-17T15:04:38;4.45;;;1.02;;
34828;SDS011;21042;47.620;12.188;2024-03-17T15:07:03;5.78;;;0.93;;
34828;SDS011;21042;47.620;12.188;2024-03-17T15:09:29;3.03;;;0.60;;
34828;SDS011;21042;47.620;12.188;2024-03-17T15:11:57;2.13;;;1.10;;
34828;SDS011;21042;47.620;12.188;2024-03-17T15:14:23;2.22;;;0.90;;
34828;SDS011;21042;47.620;12.188;2024-03-17T15:16:50;3.88;;;0.90;;
34828;SDS011;21042;47.620;12.188;2024-03-17T15:19:16;2.20;;;0.77;;